Rea, Michigan
Current Conditions -  °F | °C
As of 10:33 PM on Saturday 25 Oct 2014 (Local Time) from KTTF Reporting Station
Clear Clear  
Wind Chill: 50°   Ceiling: Unl
Heat Index: 50°   Visibility: 10mi
Dew Point: 34°   Wind: 5mph
Humidity: 54%   Direction: 280°W
Pressure: 29.82"   Gusts: NA
Location:  41.9654°N, 83.6707°W
Report Text: KTTF 260233Z AUTO 28004KT 10SM CLR 10/01 A2982 RMK AO2
Loading
Personal Weather Stations






























Interactive Weather Map
Tropical Storm Tracking
New forecast layout! Learn more

10-Day Weather Forecast

Advertisements
Track Severe Weather on mobile